Linhe, China
Current Conditions -  °F | °C
As of 10:00 PM on Friday 31 Oct 2014 (Local Time) from ZBHH Reporting Station
Few Clouds Few Clouds  
Wind Chill: 32°   Ceiling: Unl
Heat Index: 37°   Visibility: 4mi
Dew Point: 37°   Wind: 7mph
Humidity: 100%   Direction: 120°ESE
Pressure: 30.18"   Gusts: NA
Location:  40.83°N, 107.5°E
Report Text: ZBHH 311400Z 12003MPS 6000 FEW040 03/03 Q1022 NOSIG
Loading
Personal Weather Stations






























Interactive Weather Map
Tropical Storm Tracking
New forecast layout! Learn more

10-Day Weather Forecast

Advertisements
Track Severe Weather on mobile